< Typhoon 199727 1997 Season Typhoon 199801 >
Typhoon 199728 (PAKA)
General InformationTrack Information on Google MapsDetailed Wind InformationList of All Images || Disaster Info.ResourceGoogle EarthGE AnimationAtom FeedGeoJSON
Detalied Best Track (Time Zone = UTC)
Year Month Day Hour Lat. Long. Pressure (hPa) Wind (kt) Class Image Chart
1997 12 7 12 9.2 180.6 994 35 7 Image Chart
1997 12 7 18 9.0 179.7 994 35 3 Image Chart
1997 12 8 00 8.6 179.0 994 35 3 Image Chart
1997 12 8 06 8.2 178.3 994 35 3 Image Chart
1997 12 8 12 7.7 177.4 992 40 3 Image Chart
1997 12 8 18 7.2 176.5 992 40 3 Image Chart
1997 12 9 00 6.9 175.3 990 45 3 Image Chart
1997 12 9 06 6.8 174.7 990 45 3 Image Chart
1997 12 9 12 6.9 174.4 985 50 4 Image Chart
1997 12 9 18 6.9 173.5 985 50 4 Image Chart
1997 12 10 00 6.9 172.4 985 50 4 Image Chart
1997 12 10 06 6.9 171.6 985 50 4 Image Chart
1997 12 10 12 6.8 170.8 980 55 4 Image Chart
1997 12 10 18 6.6 169.9 975 60 4 Image Chart
1997 12 11 00 6.6 169.2 970 65 5 Image Chart
1997 12 11 06 6.7 168.7 970 65 5 Image Chart
1997 12 11 12 7.0 168.0 965 70 5 Image Chart
1997 12 11 18 7.3 167.4 965 70 5 Image Chart
1997 12 12 00 7.6 166.7 960 70 5 Image Chart
1997 12 12 06 7.8 166.0 955 75 5 Image Chart
1997 12 12 12 8.0 165.4 950 80 5 Image Chart
1997 12 12 18 8.4 164.3 950 80 5 Image Chart
1997 12 13 00 8.5 163.1 950 80 5 Image Chart
1997 12 13 06 8.9 161.9 955 75 5 Image Chart
1997 12 13 12 9.5 160.7 955 75 5 Image Chart
1997 12 13 18 10.0 159.3 955 75 5 Image Chart
1997 12 14 00 10.5 157.5 950 80 5 Image Chart
1997 12 14 06 11.0 155.9 950 80 5 Image Chart
1997 12 14 12 11.5 154.2 940 85 5 Image Chart
1997 12 14 18 11.9 152.6 930 95 5 Image Chart
1997 12 15 00 12.4 151.1 930 95 5 Image Chart
1997 12 15 06 12.7 149.7 930 95 5 Image Chart
1997 12 15 12 13.0 148.4 925 95 5 Image Chart
1997 12 15 18 13.4 147.3 925 95 5 Image Chart
1997 12 16 00 13.7 146.3 930 95 5 Image Chart
1997 12 16 06 13.8 145.5 935 90 5 Image Chart
1997 12 16 12 13.7 144.7 940 90 5 Image Chart
1997 12 16 18 13.8 144.0 940 90 5 Image Chart
1997 12 17 00 13.7 143.1 940 90 5 Image Chart
1997 12 17 06 13.7 142.2 935 90 5 Image Chart
1997 12 17 12 13.8 141.4 925 90 5 Image Chart
1997 12 17 18 14.1 140.7 920 100 5 Image Chart
1997 12 18 00 14.3 139.8 920 100 5 Image Chart
1997 12 18 06 14.6 139.1 920 100 5 Image Chart
1997 12 18 12 15.0 138.3 920 100 5 Image Chart
1997 12 18 18 15.3 137.3 920 100 5 Image Chart
1997 12 19 00 15.4 136.5 925 95 5 Image Chart
1997 12 19 06 15.6 135.7 930 90 5 Image Chart
1997 12 19 12 16.1 135.1 930 90 5 Image Chart
1997 12 19 18 16.5 134.4 935 90 5 Image Chart
1997 12 20 00 16.8 133.8 940 85 5 Image Chart
1997 12 20 06 17.1 133.6 945 85 5 Image Chart
1997 12 20 12 17.3 133.2 950 80 5 Image Chart
1997 12 20 18 17.5 132.9 960 75 5 Image Chart
1997 12 21 00 17.7 132.7 970 65 5 Image Chart
1997 12 21 06 17.9 132.4 980 55 4 Image Chart
1997 12 21 12 18.1 131.9 985 50 4 Image Chart
1997 12 21 18 18.0 131.1 992 45 3 Image Chart
1997 12 22 00 18.3 131.2 1000 35 3 Image Chart
1997 12 22 06 18.6 131.2 1004 0 2 Image Chart
1997 12 22 12 19.0 131.3 1006 0 2 Image Chart
1997 12 22 18 19.7 131.6 1006 0 2 Image Chart
1997 12 23 00 20.1 131.6 1010 0 2 Image Chart
Japan Meteorological Agency Best Track Data | Correction Date : 2013-11-22
< Typhoon 199727 1997 Season Typhoon 199801 >

Help